Time;durP1;ratioP1;P1;durP2;ratioP2;P2;SDS_P1;SDS_P2;PMS_P1;PMS_P2;Temp;Humidity;BMP_temperature;BMP_pressure;BME280_temperature;BME280_humidity;BME280_pressure;Samples;Min_cycle;Max_cycle;Signal;HPM_P1;HPM_P2
2022/06/18 00:01:34;;;;;;;2.92;1.27;;;20.70;72.20;;;;;;5031379;28;19909;-82
2022/06/18 00:04:20;;;;;;;4.40;1.42;;;20.70;72.60;;;;;;5031544;28;20029;-82
2022/06/18 00:07:21;;;;;;;1.98;1.10;;;20.60;72.20;;;;;;5031514;28;20025;-80
2022/06/18 00:09:57;;;;;;;2.65;1.30;;;20.60;72.40;;;;;;5029915;28;20072;-81
2022/06/18 00:15:13;;;;;;;;;;;20.50;72.90;;;;;;5031514;28;20044;-83
2022/06/18 00:17:39;;;;;;;3.30;1.92;;;20.50;73.10;;;;;;5031061;28;19920;-82
2022/06/18 00:20:05;;;;;;;3.58;1.60;;;20.50;72.90;;;;;;5030949;28;20033;-83
2022/06/18 00:22:34;;;;;;;2.55;1.30;;;20.40;72.80;;;;;;5030358;28;20041;-83
2022/06/18 00:25:00;;;;;;;2.35;1.20;;;20.50;73.30;;;;;;5031467;28;20107;-83
2022/06/18 00:27:27;;;;;;;3.95;1.95;;;20.40;73.50;;;;;;5031411;28;20037;-84
2022/06/18 00:29:53;;;;;;;2.83;2.17;;;20.40;73.10;;;;;;5031070;28;20045;-83
2022/06/18 00:32:18;;;;;;;2.47;1.77;;;20.30;73.40;;;;;;5031052;28;20057;-83
2022/06/18 00:34:44;;;;;;;2.67;1.55;;;20.40;73.60;;;;;;5031031;28;20021;-82
2022/06/18 00:37:16;;;;;;;4.45;2.88;;;20.30;73.70;;;;;;5031264;28;20018;-82
2022/06/18 00:39:41;;;;;;;3.67;1.67;;;20.30;73.50;;;;;;5030226;28;20026;-83
2022/06/18 00:42:13;;;;;;;3.78;2.20;;;20.30;73.50;;;;;;5030509;28;20060;-83
2022/06/18 00:44:41;;;;;;;3.55;1.95;;;20.30;73.80;;;;;;5029782;28;20053;-84
2022/06/18 00:47:28;;;;;;;4.13;1.60;;;20.30;73.70;;;;;;5030872;28;20497;-84
2022/06/18 00:50:03;;;;;;;1.92;1.40;;;20.30;73.60;;;;;;5031166;28;20025;-82
2022/06/18 00:52:34;;;;;;;4.38;1.70;;;20.20;73.90;;;;;;5031291;28;20036;-84
2022/06/18 00:55:14;;;;;;;4.13;1.63;;;20.20;74.50;;;;;;5030776;28;20018;-84
2022/06/18 00:57:55;;;;;;;1.77;1.33;;;20.20;74.20;;;;;;5031470;28;20045;-85
2022/06/18 01:00:47;;;;;;;2.10;1.30;;;20.20;74.10;;;;;;5031155;28;20083;-82
2022/06/18 01:03:31;;;;;;;5.60;1.48;;;20.20;74.20;;;;;;5030698;28;20487;-85
2022/06/18 01:06:03;;;;;;;2.28;1.42;;;20.10;74.20;;;;;;5030923;28;20476;-85
2022/06/18 01:08:32;;;;;;;1.40;1.25;;;20.10;74.10;;;;;;5030891;28;20033;-84
2022/06/18 01:11:22;;;;;;;3.50;1.48;;;20.10;74.10;;;;;;5030748;28;20021;-85
2022/06/18 01:13:49;;;;;;;1.83;1.27;;;20.10;74.60;;;;;;5028761;28;20029;-84
2022/06/18 01:16:18;;;;;;;3.47;1.30;;;20.00;74.40;;;;;;5029740;28;20451;-84
2022/06/18 01:18:48;;;;;;;2.03;1.17;;;20.00;74.30;;;;;;5031349;28;20026;-84
2022/06/18 01:21:35;;;;;;;2.13;1.08;;;20.00;74.20;;;;;;5030629;28;20025;-85
2022/06/18 01:24:10;;;;;;;2.67;1.30;;;20.00;74.60;;;;;;5029607;28;20099;-86
2022/06/18 01:26:37;;;;;;;1.15;1.00;;;20.00;74.30;;;;;;5031149;28;20036;-83
2022/06/18 01:29:03;;;;;;;4.15;1.35;;;20.00;74.40;;;;;;5030656;28;20368;-83
2022/06/18 01:31:29;;;;;;;2.97;1.38;;;20.00;74.70;;;;;;5030351;28;20598;-83
2022/06/18 01:33:56;;;;;;;2.10;1.50;;;20.00;75.00;;;;;;5032704;28;20084;-84
2022/06/18 01:36:22;;;;;;;2.35;1.20;;;20.00;74.90;;;;;;5019804;28;20084;-85
2022/06/18 01:38:48;;;;;;;1.25;1.15;;;19.90;75.00;;;;;;5014867;28;20405;-82
2022/06/18 01:41:50;;;;;;;5.90;1.88;;;19.90;74.50;;;;;;5014309;28;20138;-83
2022/06/18 01:44:26;;;;;;;2.60;1.17;;;19.90;75.10;;;;;;5014325;28;20038;-83
2022/06/18 01:46:56;;;;;;;3.83;1.90;;;19.90;75.20;;;;;;5014305;28;20053;-85
2022/06/18 01:49:40;;;;;;;2.25;1.38;;;19.90;75.20;;;;;;5014209;28;20026;-84
2022/06/18 01:52:08;;;;;;;5.82;1.77;;;19.90;75.50;;;;;;5014666;28;20025;-85
2022/06/18 01:54:49;;;;;;;8.45;1.52;;;19.90;75.50;;;;;;5013898;28;20014;-85
2022/06/18 01:57:29;;;;;;;3.83;1.80;;;19.90;75.70;;;;;;5014287;28;20173;-86
2022/06/18 02:00:05;;;;;;;4.03;1.70;;;19.90;75.70;;;;;;5014804;28;20022;-88
2022/06/18 02:02:31;;;;;;;2.08;1.48;;;19.90;75.80;;;;;;5014276;28;20029;-87
2022/06/18 02:04:57;;;;;;;5.97;1.50;;;19.80;75.80;;;;;;5014357;28;20091;-85
2022/06/18 02:07:22;;;;;;;3.25;1.85;;;19.90;75.80;;;;;;5014299;28;20022;-82
2022/06/18 02:10:02;;;;;;;4.65;1.58;;;19.90;75.90;;;;;;5013647;28;20024;-83
2022/06/18 02:12:34;;;;;;;3.08;1.58;;;19.80;76.10;;;;;;5014109;28;20073;-82
2022/06/18 02:15:12;;;;;;;2.15;1.52;;;19.80;76.00;;;;;;5014032;28;20042;-84
2022/06/18 02:17:39;;;;;;;3.10;1.90;;;19.80;76.40;;;;;;5013631;28;20042;-83
2022/06/18 02:20:16;;;;;;;3.80;1.38;;;19.80;76.20;;;;;;5013666;28;20030;-84
2022/06/18 02:22:45;;;;;;;3.08;1.63;;;19.80;76.30;;;;;;5012436;28;20047;-83
2022/06/18 02:25:13;;;;;;;3.33;1.60;;;19.80;76.30;;;;;;5012603;28;20375;-84
2022/06/18 02:27:40;;;;;;;2.20;1.65;;;19.80;76.60;;;;;;5013871;28;20085;-83
2022/06/18 02:30:15;;;;;;;1.77;1.40;;;19.80;76.70;;;;;;5012302;28;20041;-84
2022/06/18 02:33:03;;;;;;;1.65;1.40;;;19.80;76.50;;;;;;5013202;28;20130;-83
2022/06/18 02:35:34;;;;;;;4.65;1.90;;;19.80;76.70;;;;;;5013907;28;20125;-85
2022/06/18 02:38:00;;;;;;;1.73;1.38;;;19.80;76.90;;;;;;5013385;28;20249;-82
2022/06/18 02:40:30;;;;;;;2.70;1.50;;;19.80;76.80;;;;;;5013913;28;20033;-84
2022/06/18 02:42:58;;;;;;;3.45;1.42;;;19.70;76.90;;;;;;5013621;28;20100;-84
2022/06/18 02:45:26;;;;;;;2.88;1.55;;;19.80;76.90;;;;;;5012905;28;20037;-83
2022/06/18 02:47:55;;;;;;;3.20;1.63;;;19.80;77.00;;;;;;5013539;28;20084;-83
2022/06/18 02:50:23;;;;;;;2.55;1.42;;;19.80;77.10;;;;;;5013404;28;20026;-84
2022/06/18 02:52:55;;;;;;;1.42;1.23;;;19.80;76.60;;;;;;5013181;28;20042;-83
2022/06/18 02:55:32;;;;;;;4.00;1.25;;;19.80;77.00;;;;;;5013019;28;20041;-83
2022/06/18 02:58:09;;;;;;;3.22;1.58;;;19.80;77.10;;;;;;5012987;28;20073;-83
2022/06/18 03:00:38;;;;;;;1.27;1.17;;;19.70;77.10;;;;;;5013327;28;20109;-84
2022/06/18 03:03:06;;;;;;;;;;;19.70;77.10;;;;;;5013135;28;20371;-84
2022/06/18 03:05:32;;;;;;;;;;;19.80;77.10;;;;;;5013504;28;20559;-83
2022/06/18 03:07:57;;;;;;;1.77;1.15;;;19.80;77.10;;;;;;5012744;28;20287;-83
2022/06/18 03:13:08;;;;;;;1.75;1.10;;;19.70;78.00;;;;;;5012843;28;20080;-83
2022/06/18 03:15:34;;;;;;;3.83;1.30;;;19.70;77.90;;;;;;5012949;28;20024;-83
2022/06/18 03:18:01;;;;;;;2.30;1.20;;;19.70;78.00;;;;;;5012609;28;20046;-85
2022/06/18 03:20:54;;;;;;;2.17;1.23;;;19.70;78.30;;;;;;5012635;28;20041;-87
2022/06/18 03:23:23;;;;;;;3.50;1.23;;;19.70;78.30;;;;;;5020389;28;20510;-83
2022/06/18 03:25:49;;;;;;;1.85;1.38;;;19.70;78.40;;;;;;5012740;28;20033;-82
2022/06/18 03:28:19;;;;;;;2.38;1.20;;;19.70;78.10;;;;;;5012609;28;20092;-83
2022/06/18 03:30:45;;;;;;;4.70;1.42;;;19.70;78.50;;;;;;5012958;28;20359;-84
2022/06/18 03:33:12;;;;;;;3.53;1.30;;;19.70;78.50;;;;;;5012277;28;20382;-85
2022/06/18 03:35:43;;;;;;;4.85;1.60;;;19.60;78.70;;;;;;5012305;28;20037;-84
2022/06/18 03:38:10;;;;;;;1.63;1.50;;;19.70;78.60;;;;;;5012270;28;20490;-84
2022/06/18 03:40:36;;;;;;;1.88;1.23;;;19.70;78.70;;;;;;5012229;28;20045;-84
2022/06/18 03:43:02;;;;;;;2.72;1.67;;;19.70;78.90;;;;;;5012366;28;20081;-86
2022/06/18 03:45:30;;;;;;;5.85;2.20;;;19.70;79.60;;;;;;5012654;28;20466;-85
2022/06/18 03:47:56;;;;;;;;;;;19.60;78.80;;;;;;5012924;28;20495;-86
2022/06/18 03:50:22;;;;;;;2.50;1.48;;;19.70;78.90;;;;;;5010959;28;19913;-83
2022/06/18 03:52:48;;;;;;;2.78;1.38;;;19.70;78.90;;;;;;5011955;28;20026;-83
2022/06/18 03:55:16;;;;;;;4.20;1.30;;;19.70;79.10;;;;;;5011669;28;20447;-83
2022/06/18 03:57:42;;;;;;;7.75;1.70;;;19.70;79.20;;;;;;5012601;28;20092;-84
2022/06/18 04:00:14;;;;;;;3.75;1.70;;;19.70;79.10;;;;;;5011892;28;20041;-85
2022/06/18 04:02:40;;;;;;;3.55;1.65;;;19.70;79.30;;;;;;5011515;28;20543;-83
2022/06/18 04:05:06;;;;;;;2.75;1.27;;;19.80;79.50;;;;;;5011704;28;20113;-84
2022/06/18 04:07:32;;;;;;;3.17;1.17;;;19.70;79.20;;;;;;5011956;28;20022;-83
2022/06/18 04:10:01;;;;;;;2.42;1.67;;;19.80;79.30;;;;;;5011470;28;20026;-81
2022/06/18 04:12:27;;;;;;;1.55;1.20;;;19.80;79.70;;;;;;5012221;28;20026;-81
2022/06/18 04:14:54;;;;;;;1.77;1.30;;;19.80;79.70;;;;;;5011884;28;20030;-85
2022/06/18 04:17:21;;;;;;;2.72;1.58;;;19.80;79.90;;;;;;5011705;28;20038;-82
2022/06/18 04:19:46;;;;;;;4.15;1.30;;;19.90;80.40;;;;;;5011308;28;20034;-85
2022/06/18 04:22:13;;;;;;;2.10;1.48;;;19.90;80.10;;;;;;5011323;28;20037;-84
2022/06/18 04:24:38;;;;;;;3.80;1.30;;;19.90;80.20;;;;;;5011740;28;20022;-83
2022/06/18 04:27:04;;;;;;;2.15;1.40;;;19.90;79.90;;;;;;5010401;28;20038;-83
2022/06/18 04:29:32;;;;;;;2.25;1.25;;;20.00;80.40;;;;;;5010039;28;20483;-81
2022/06/18 04:31:59;;;;;;;2.95;1.50;;;20.00;80.50;;;;;;5011279;28;20030;-81
2022/06/18 04:34:25;;;;;;;4.50;1.40;;;20.00;80.80;;;;;;5011252;28;20444;-82
2022/06/18 04:36:51;;;;;;;5.22;1.92;;;20.00;80.70;;;;;;5011434;28;20262;-82
2022/06/18 04:39:17;;;;;;;3.75;1.92;;;20.10;80.20;;;;;;5010203;28;20041;-83
2022/06/18 04:41:42;;;;;;;2.15;1.55;;;20.20;80.90;;;;;;5009946;28;20092;-81
2022/06/18 04:44:08;;;;;;;2.78;1.60;;;20.20;81.20;;;;;;5011100;28;20064;-83
2022/06/18 04:46:34;;;;;;;1.63;1.20;;;20.30;80.60;;;;;;5010987;28;20030;-82
2022/06/18 04:48:59;;;;;;;3.58;1.20;;;20.30;80.90;;;;;;5010990;28;20048;-83
2022/06/18 04:51:25;;;;;;;2.00;1.70;;;20.40;80.90;;;;;;5011602;28;20050;-82
2022/06/18 04:53:51;;;;;;;2.60;1.25;;;20.40;80.80;;;;;;5010799;28;20446;-82
2022/06/18 04:56:17;;;;;;;4.90;1.10;;;20.50;81.00;;;;;;5011299;28;20037;-86
2022/06/18 04:58:43;;;;;;;1.63;1.30;;;20.50;80.70;;;;;;5011028;28;20452;-86
2022/06/18 05:01:17;;;;;;;6.95;1.40;;;20.60;80.60;;;;;;5010992;28;20044;-84
2022/06/18 05:03:43;;;;;;;4.75;2.40;;;20.70;80.60;;;;;;5011611;28;20026;-85
2022/06/18 05:06:09;;;;;;;8.63;3.00;;;20.70;80.30;;;;;;5011183;28;20044;-82
2022/06/18 05:08:34;;;;;;;12.77;6.38;;;20.80;80.20;;;;;;5014191;28;20464;-82
2022/06/18 05:11:00;;;;;;;7.53;3.85;;;20.90;80.70;;;;;;5014837;28;20033;-81
2022/06/18 05:13:25;;;;;;;3.35;1.95;;;20.90;79.90;;;;;;5014898;28;20401;-81
2022/06/18 05:15:53;;;;;;;9.68;5.68;;;21.00;79.90;;;;;;5015120;28;20291;-81
2022/06/18 05:18:20;;;;;;;7.15;2.33;;;21.10;79.90;;;;;;5015889;28;20104;-80
2022/06/18 05:20:51;;;;;;;1.30;1.17;;;21.20;79.90;;;;;;5013985;28;20056;-83
2022/06/18 05:23:18;;;;;;;6.03;1.58;;;21.20;79.70;;;;;;5015000;28;20121;-84
2022/06/18 05:25:44;;;;;;;2.97;1.40;;;21.30;79.80;;;;;;5014973;28;20463;-85
2022/06/18 05:28:11;;;;;;;2.70;1.27;;;21.40;80.60;;;;;;5015141;28;20101;-82
2022/06/18 05:30:37;;;;;;;2.05;1.13;;;21.50;79.80;;;;;;5013902;28;20021;-81
2022/06/18 05:33:03;;;;;;;2.45;1.33;;;21.50;79.70;;;;;;5014320;28;20054;-81
2022/06/18 05:35:30;;;;;;;2.47;1.45;;;21.60;79.30;;;;;;5014608;28;20483;-82
2022/06/18 05:37:56;;;;;;;1.80;1.20;;;21.70;79.60;;;;;;5015383;28;20060;-81
2022/06/18 05:40:22;;;;;;;2.63;1.70;;;21.80;79.60;;;;;;5017928;28;20368;-82
2022/06/18 05:42:48;;;;;;;6.20;1.17;;;21.90;79.40;;;;;;5016480;28;20026;-83
2022/06/18 05:45:14;;;;;;;4.75;1.52;;;22.00;79.60;;;;;;5014813;28;20421;-84
2022/06/18 05:47:40;;;;;;;6.78;1.40;;;22.10;79.70;;;;;;5014565;28;20042;-85
2022/06/18 05:50:10;;;;;;;4.43;1.45;;;22.20;79.50;;;;;;5013497;28;20464;-83
2022/06/18 05:52:36;;;;;;;4.20;1.85;;;22.30;79.20;;;;;;5014780;28;20030;-85
2022/06/18 05:55:04;;;;;;;1.88;1.30;;;22.40;79.60;;;;;;5014943;28;20045;-84
2022/06/18 05:57:29;;;;;;;2.92;1.52;;;22.60;79.40;;;;;;5015041;28;20061;-80
2022/06/18 05:59:55;;;;;;;5.00;1.52;;;22.70;78.60;;;;;;5014288;28;20077;-83
2022/06/18 06:02:21;;;;;;;2.28;1.52;;;23.00;78.60;;;;;;5014237;28;20536;-83
2022/06/18 06:04:47;;;;;;;3.63;1.90;;;23.20;78.30;;;;;;5013920;28;20041;-77
2022/06/18 06:07:18;;;;;;;3.13;2.20;;;23.30;77.30;;;;;;5012561;28;20176;-77
2022/06/18 06:12:28;;;;;;;4.03;1.60;;;23.40;77.30;;;;;;5013730;28;20065;-78
2022/06/18 06:14:53;;;;;;;1.98;1.25;;;23.40;77.20;;;;;;5013746;28;20038;-78
2022/06/18 06:17:22;;;;;;;4.60;1.40;;;23.40;76.90;;;;;;5013719;28;20065;-79
2022/06/18 06:19:47;;;;;;;3.78;1.50;;;23.40;77.20;;;;;;5012533;28;20038;-79
2022/06/18 06:22:13;;;;;;;6.45;2.10;;;23.50;76.90;;;;;;5013093;28;20088;-74
2022/06/18 06:24:38;;;;;;;4.35;1.88;;;23.50;76.80;;;;;;5013621;28;20040;-78
2022/06/18 06:27:04;;;;;;;3.28;2.38;;;23.60;77.30;;;;;;5012109;28;20036;-77
2022/06/18 06:29:31;;;;;;;2.28;1.63;;;23.80;76.70;;;;;;5013346;28;20041;-78
2022/06/18 06:31:56;;;;;;;3.45;1.73;;;24.00;76.90;;;;;;5012903;28;20483;-76
2022/06/18 06:34:22;;;;;;;4.00;1.80;;;24.10;76.00;;;;;;5013458;28;20164;-81
2022/06/18 06:36:48;;;;;;;3.92;1.70;;;24.10;76.20;;;;;;5012522;28;20022;-78
2022/06/18 06:39:14;;;;;;;2.97;2.00;;;24.20;76.30;;;;;;5012896;28;20030;-80
2022/06/18 06:41:40;;;;;;;5.05;2.47;;;24.30;75.90;;;;;;5011750;28;20038;-80
2022/06/18 06:44:06;;;;;;;3.25;1.83;;;24.30;75.80;;;;;;5013110;28;20030;-79
2022/06/18 06:46:32;;;;;;;9.13;1.90;;;24.40;75.90;;;;;;5013120;28;20045;-81
2022/06/18 06:48:58;;;;;;;6.13;2.17;;;24.40;75.90;;;;;;5012909;28;20029;-78
2022/06/18 06:51:27;;;;;;;4.05;2.08;;;24.50;76.00;;;;;;5013214;28;20084;-77
2022/06/18 06:53:53;;;;;;;5.05;2.30;;;24.50;76.20;;;;;;5012914;28;20030;-78
2022/06/18 06:59:06;;;;;;;4.78;2.08;;;24.60;76.30;;;;;;5012403;28;20032;-72
2022/06/18 07:01:34;;;;;;;4.15;2.20;;;24.70;76.20;;;;;;5012668;28;20034;-77
2022/06/18 07:04:00;;;;;;;5.05;2.30;;;24.70;76.00;;;;;;5012392;28;20376;-74
2022/06/18 07:06:26;;;;;;;2.55;1.85;;;24.80;75.70;;;;;;5011893;28;20018;-73
2022/06/18 07:08:52;;;;;;;6.18;2.15;;;24.90;75.80;;;;;;5011213;28;20026;-73
2022/06/18 07:11:18;;;;;;;6.57;2.65;;;24.90;75.60;;;;;;5012369;28;20081;-75
2022/06/18 07:13:44;;;;;;;5.65;1.88;;;25.20;75.90;;;;;;5011211;28;20046;-75
2022/06/18 07:16:14;;;;;;;5.75;2.20;;;25.60;75.50;;;;;;5012247;28;20022;-72
2022/06/18 07:18:40;;;;;;;10.35;2.42;;;25.80;75.00;;;;;;5012595;28;20030;-75
2022/06/18 07:21:11;;;;;;;8.43;2.40;;;25.80;74.20;;;;;;5012322;28;20057;-73
2022/06/18 07:23:37;;;;;;;7.22;2.28;;;25.90;74.20;;;;;;5012167;28;20045;-71
2022/06/18 07:26:06;;;;;;;9.40;2.80;;;25.80;73.90;;;;;;5012176;28;20033;-76
2022/06/18 07:28:32;;;;;;;11.93;2.92;;;25.80;74.20;;;;;;5012023;28;20040;-72
2022/06/18 07:30:59;;;;;;;6.25;2.60;;;25.80;74.00;;;;;;5011966;28;20018;-74
2022/06/18 07:33:27;;;;;;;6.97;2.33;;;25.70;74.10;;;;;;5012180;28;20058;-74
2022/06/18 07:35:53;;;;;;;5.43;2.33;;;25.70;74.10;;;;;;5011882;28;20034;-75
2022/06/18 07:38:19;;;;;;;6.28;2.70;;;25.90;74.30;;;;;;5011973;28;20041;-75
2022/06/18 07:40:50;;;;;;;4.78;2.40;;;25.70;73.90;;;;;;5010817;28;20452;-72
2022/06/18 07:43:24;;;;;;;4.80;2.40;;;25.90;73.90;;;;;;5011701;28;20030;-73
2022/06/18 07:45:50;;;;;;;8.70;2.50;;;26.00;73.60;;;;;;5012077;28;20114;-71
2022/06/18 07:48:16;;;;;;;5.25;2.85;;;26.10;73.60;;;;;;5011705;28;20030;-71
2022/06/18 07:50:46;;;;;;;7.68;3.55;;;26.10;73.30;;;;;;5011639;28;20610;-74
2022/06/18 07:53:17;;;;;;;12.57;2.97;;;26.20;73.30;;;;;;5011559;28;20038;-72
2022/06/18 07:55:42;;;;;;;6.45;2.38;;;26.30;73.20;;;;;;5011639;28;20050;-72
2022/06/18 07:58:08;;;;;;;7.85;2.40;;;26.40;73.10;;;;;;5010021;28;20084;-81
2022/06/18 08:00:35;;;;;;;9.20;3.00;;;26.60;72.70;;;;;;5030817;28;20129;-73
2022/06/18 08:03:05;;;;;;;6.15;2.30;;;26.50;72.80;;;;;;5030391;28;20067;-73
2022/06/18 08:05:31;;;;;;;6.55;2.30;;;26.80;72.60;;;;;;5031698;28;20595;-71
2022/06/18 08:07:56;;;;;;;6.38;3.00;;;27.00;72.30;;;;;;5031218;28;20416;-72
2022/06/18 08:10:22;;;;;;;7.93;2.70;;;27.50;71.50;;;;;;5031425;28;20451;-74
2022/06/18 08:12:48;;;;;;;12.38;3.08;;;27.90;70.80;;;;;;5031436;28;20046;-74
2022/06/18 08:15:13;;;;;;;7.20;3.00;;;28.30;69.70;;;;;;5031106;28;20487;-72
2022/06/18 08:17:39;;;;;;;6.63;2.80;;;29.10;68.20;;;;;;5031115;28;20413;-72
2022/06/18 08:20:06;;;;;;;8.52;2.60;;;29.50;66.60;;;;;;5030982;28;20099;-70
2022/06/18 08:22:33;;;;;;;4.70;2.10;;;30.20;65.50;;;;;;5030863;28;20115;-72
2022/06/18 08:24:59;;;;;;;4.30;2.60;;;30.50;63.40;;;;;;5031279;28;20432;-71
2022/06/18 08:27:26;;;;;;;7.05;2.55;;;31.10;63.10;;;;;;5031372;28;20021;-72
2022/06/18 08:29:52;;;;;;;10.02;2.80;;;31.40;62.00;;;;;;5030203;28;20049;-71
2022/06/18 08:32:17;;;;;;;5.13;2.50;;;31.60;60.60;;;;;;5029812;28;20049;-71
2022/06/18 08:34:43;;;;;;;5.03;2.70;;;32.00;61.70;;;;;;5030805;28;20036;-72
2022/06/18 08:37:09;;;;;;;6.60;2.60;;;32.20;59.80;;;;;;5030847;28;20021;-74
2022/06/18 08:39:37;;;;;;;5.65;2.35;;;32.80;60.10;;;;;;5031283;28;20155;-71
2022/06/18 08:42:35;;;;;;;4.57;2.47;;;33.00;57.10;;;;;;5030497;28;20485;-75
2022/06/18 08:45:27;;;;;;;12.00;3.05;;;33.00;57.50;;;;;;5022577;28;20191;-73
2022/06/18 08:48:13;;;;;;;7.07;2.83;;;32.60;57.00;;;;;;5029203;28;20053;-69
2022/06/18 08:51:21;;;;;;;13.25;3.50;;;33.00;58.70;;;;;;5030986;28;20399;-72
2022/06/18 08:53:59;;;;;;;7.65;3.10;;;33.00;58.10;;;;;;5008775;28;20049;-71
2022/06/18 08:56:54;;;;;;;5.22;2.78;;;33.70;58.20;;;;;;5028026;28;20053;-74
2022/06/18 08:59:36;;;;;;;7.60;3.03;;;34.10;56.60;;;;;;5029484;28;20037;-76
2022/06/18 09:02:21;;;;;;;7.57;3.28;;;33.90;56.30;;;;;;5030691;28;20132;-74
2022/06/18 09:05:04;;;;;;;6.90;2.72;;;33.50;56.70;;;;;;5030811;28;20033;-76
2022/06/18 09:08:01;;;;;;;7.03;3.10;;;33.50;57.00;;;;;;5030709;28;20030;-73
2022/06/18 09:10:44;;;;;;;9.60;5.13;;;33.80;56.50;;;;;;5030353;28;20037;-72
2022/06/18 09:13:36;;;;;;;12.73;3.53;;;33.10;57.70;;;;;;5030244;28;20036;-71
2022/06/18 09:16:08;;;;;;;7.05;3.20;;;33.60;57.70;;;;;;5024616;28;20044;-72
2022/06/18 09:18:42;;;;;;;11.65;4.10;;;33.90;56.70;;;;;;5030898;28;20452;-69
2022/06/18 09:21:19;;;;;;;5.43;3.00;;;34.00;56.50;;;;;;5030320;28;20112;-72
2022/06/18 09:23:52;;;;;;;7.18;3.28;;;33.40;57.10;;;;;;5030154;28;20363;-70
2022/06/18 09:26:24;;;;;;;11.45;3.60;;;33.10;58.30;;;;;;5030193;28;20050;-70
2022/06/18 09:29:01;;;;;;;9.75;3.30;;;32.80;58.30;;;;;;5029036;28;20029;-71
2022/06/18 09:31:44;;;;;;;7.47;2.95;;;32.50;58.90;;;;;;5030408;28;20484;-71
2022/06/18 09:34:48;;;;;;;11.95;3.22;;;32.20;59.30;;;;;;5029697;28;20049;-72
2022/06/18 09:37:40;;;;;;;11.43;3.13;;;32.00;59.90;;;;;;5030711;28;20342;-72
2022/06/18 09:40:18;;;;;;;9.02;3.22;;;32.10;60.00;;;;;;5030506;28;20029;-75
2022/06/18 09:42:53;;;;;;;8.23;3.10;;;31.80;59.60;;;;;;5030432;28;20550;-76
2022/06/18 09:45:24;;;;;;;10.02;3.22;;;31.70;60.20;;;;;;5030396;28;20097;-77
2022/06/18 09:47:50;;;;;;;11.02;3.45;;;31.40;60.50;;;;;;5030368;28;20033;-76
2022/06/18 09:50:48;;;;;;;8.30;3.35;;;31.30;60.70;;;;;;5030467;28;20087;-77
2022/06/18 09:53:26;;;;;;;11.80;3.17;;;31.30;60.60;;;;;;5026885;28;20048;-76
2022/06/18 09:56:10;;;;;;;8.73;3.15;;;31.60;60.60;;;;;;5033808;28;20121;-77
2022/06/18 09:58:42;;;;;;;7.20;3.00;;;31.30;61.20;;;;;;5033622;28;20029;-76
2022/06/18 10:01:13;;;;;;;11.38;3.60;;;31.20;61.00;;;;;;5032380;28;20049;-77
2022/06/18 10:09:21;;;;;;;7.78;2.97;;;31.30;61.40;;;;;;5034022;28;20036;-76
2022/06/18 10:11:48;;;;;;;8.75;3.10;;;31.30;60.20;;;;;;5034095;28;20083;-76
2022/06/18 10:14:22;;;;;;;7.95;3.50;;;31.30;61.00;;;;;;5032701;28;20363;-75
2022/06/18 10:17:11;;;;;;;7.07;2.75;;;31.50;60.70;;;;;;5033757;28;20029;-76
2022/06/18 10:20:01;;;;;;;10.40;3.25;;;31.50;61.20;;;;;;5033862;28;20030;-77
2022/06/18 10:22:42;;;;;;;8.00;3.25;;;31.50;60.10;;;;;;5034178;28;20368;-76
2022/06/18 10:25:39;;;;;;;11.80;3.25;;;31.20;60.00;;;;;;5033474;28;20018;-75
2022/06/18 10:28:10;;;;;;;8.27;2.80;;;31.30;60.20;;;;;;5032192;28;20451;-77
2022/06/18 10:30:58;;;;;;;8.60;2.92;;;31.30;59.40;;;;;;5033670;28;20021;-77
2022/06/18 10:33:46;;;;;;;4.07;2.70;;;31.20;59.10;;;;;;5031920;28;20161;-76
2022/06/18 10:36:37;;;;;;;9.35;3.13;;;31.20;59.60;;;;;;5032998;28;20063;-75
2022/06/18 10:39:15;;;;;;;10.07;3.55;;;31.20;59.80;;;;;;5029719;28;20049;-77
2022/06/18 10:42:04;;;;;;;13.55;3.60;;;31.30;59.60;;;;;;5031923;28;20133;-77
2022/06/18 10:44:48;;;;;;;8.25;3.00;;;31.60;59.50;;;;;;5033079;28;20359;-77
2022/06/18 10:47:17;;;;;;;11.15;3.55;;;31.80;59.20;;;;;;5032835;28;20045;-77
2022/06/18 10:49:44;;;;;;;9.68;3.42;;;31.80;59.10;;;;;;5032670;28;20478;-78
2022/06/18 10:52:25;;;;;;;14.60;5.90;;;31.90;58.30;;;;;;5032586;28;20045;-77
2022/06/18 10:55:04;;;;;;;9.35;3.97;;;31.60;58.00;;;;;;5033325;28;20041;-76
2022/06/18 10:57:30;;;;;;;7.78;2.95;;;31.60;58.10;;;;;;5031482;28;20418;-76
2022/06/18 10:59:56;;;;;;;13.30;3.20;;;31.80;58.20;;;;;;5032380;28;20021;-76
2022/06/18 11:02:35;;;;;;;15.82;3.38;;;31.80;58.50;;;;;;5032212;28;20442;-76
2022/06/18 11:05:05;;;;;;;8.52;3.28;;;31.80;58.80;;;;;;5031849;28;20029;-78
2022/06/18 11:07:33;;;;;;;9.23;2.72;;;31.80;58.80;;;;;;5032423;28;20037;-76
2022/06/18 11:10:19;;;;;;;16.10;3.38;;;31.60;59.10;;;;;;5032512;28;20014;-77
2022/06/18 11:12:56;;;;;;;14.48;4.07;;;31.70;58.40;;;;;;5031690;28;20128;-77
2022/06/18 11:15:26;;;;;;;13.00;3.45;;;31.90;58.30;;;;;;5032188;28;20057;-79
2022/06/18 11:17:52;;;;;;;13.60;3.30;;;31.60;58.50;;;;;;5032577;28;20399;-76
2022/06/18 11:20:26;;;;;;;11.10;3.85;;;31.70;58.40;;;;;;5032216;28;20040;-77
2022/06/18 11:22:57;;;;;;;9.25;3.60;;;31.90;58.10;;;;;;5034415;28;20414;-77
2022/06/18 11:25:26;;;;;;;9.85;3.28;;;32.00;58.10;;;;;;5038453;28;20032;-78
2022/06/18 11:27:55;;;;;;;13.95;3.78;;;31.80;57.90;;;;;;5040193;28;20026;-77
2022/06/18 11:30:28;;;;;;;14.50;4.03;;;31.90;57.70;;;;;;5039978;28;20095;-76
2022/06/18 11:32:53;;;;;;;8.15;3.08;;;32.00;57.70;;;;;;5036290;28;20049;-75
2022/06/18 11:35:28;;;;;;;10.38;3.28;;;31.70;57.70;;;;;;5033835;28;20352;-76
2022/06/18 11:38:03;;;;;;;7.53;2.92;;;31.80;57.80;;;;;;5033775;28;20120;-78
2022/06/18 11:40:30;;;;;;;12.50;3.78;;;31.70;58.00;;;;;;5032733;28;20056;-77
2022/06/18 11:43:06;;;;;;;14.25;6.60;;;31.50;58.50;;;;;;5033872;28;20448;-79
2022/06/18 11:45:50;;;;;;;15.02;4.20;;;31.70;58.50;;;;;;5032661;28;20038;-75
2022/06/18 11:48:30;;;;;;;8.13;3.28;;;31.80;58.40;;;;;;5032668;28;20075;-75
2022/06/18 11:51:24;;;;;;;6.95;2.95;;;32.00;58.60;;;;;;5033678;28;20030;-77
2022/06/18 11:54:08;;;;;;;10.60;3.30;;;32.00;58.30;;;;;;5036033;28;20037;-75
2022/06/18 11:56:42;;;;;;;13.98;3.60;;;31.70;57.70;;;;;;5033561;28;20033;-78
2022/06/18 11:59:25;;;;;;;8.45;3.15;;;31.80;57.90;;;;;;5031939;28;20040;-77
2022/06/18 12:01:56;;;;;;;15.48;3.60;;;31.70;58.10;;;;;;5031506;28;20030;-76
2022/06/18 12:04:48;;;;;;;6.57;3.20;;;31.70;58.40;;;;;;5031235;28;20037;-77
2022/06/18 12:07:17;;;;;;;10.40;3.83;;;31.90;58.40;;;;;;5031142;28;20028;-76
2022/06/18 12:09:43;;;;;;;13.75;4.20;;;31.70;58.60;;;;;;5031559;28;20032;-76
2022/06/18 12:12:30;;;;;;;12.27;3.92;;;31.80;58.40;;;;;;5029981;28;20037;-78
2022/06/18 12:14:56;;;;;;;;;;;31.80;58.30;;;;;;5031469;28;20025;-78
2022/06/18 12:17:44;;;;;;;11.52;3.92;;;31.80;58.10;;;;;;5029262;28;19913;-76
2022/06/18 12:20:24;;;;;;;7.85;3.63;;;32.00;58.10;;;;;;5030347;28;20034;-76
2022/06/18 12:22:58;;;;;;;16.23;3.90;;;32.00;58.20;;;;;;5031242;28;20042;-76
2022/06/18 12:25:36;;;;;;;11.93;4.10;;;31.90;58.30;;;;;;5030948;28;20052;-76
2022/06/18 12:28:19;;;;;;;10.32;3.83;;;31.90;58.40;;;;;;5030968;28;20040;-76
2022/06/18 12:31:14;;;;;;;10.43;4.00;;;31.80;58.20;;;;;;5031748;28;20013;-76
2022/06/18 12:33:43;;;;;;;11.10;4.07;;;31.90;58.40;;;;;;5011264;28;20396;-76
2022/06/18 12:36:16;;;;;;;10.38;3.92;;;31.60;58.80;;;;;;5028181;28;20475;-76
2022/06/18 12:38:54;;;;;;;15.13;4.07;;;31.60;58.60;;;;;;5031052;28;20083;-76
2022/06/18 12:41:38;;;;;;;11.95;3.78;;;31.60;58.80;;;;;;5030864;28;20044;-76
2022/06/18 12:44:23;;;;;;;15.77;3.90;;;31.60;59.00;;;;;;5030732;28;20059;-76
2022/06/18 12:46:59;;;;;;;11.57;3.63;;;31.60;59.00;;;;;;5029659;28;20474;-78
2022/06/18 12:49:48;;;;;;;10.63;4.05;;;31.70;59.00;;;;;;5030867;28;20056;-77
2022/06/18 12:52:21;;;;;;;9.75;3.85;;;31.60;58.90;;;;;;5030933;28;20025;-76
2022/06/18 12:55:00;;;;;;;10.63;4.10;;;31.60;59.00;;;;;;5031418;28;20036;-77
2022/06/18 12:58:09;;;;;;;7.00;3.50;;;31.70;59.00;;;;;;5030072;28;20683;-78
2022/06/18 13:00:56;;;;;;;15.25;4.60;;;31.60;58.70;;;;;;5031486;28;20100;-78
2022/06/18 13:03:52;;;;;;;11.43;4.00;;;31.50;58.80;;;;;;5030744;28;20030;-78
2022/06/18 13:06:27;;;;;;;12.93;4.07;;;31.60;59.00;;;;;;5031203;28;20025;-78
2022/06/18 13:09:17;;;;;;;10.45;3.35;;;31.70;59.10;;;;;;5030616;28;20317;-76
2022/06/18 13:11:48;;;;;;;12.07;3.75;;;31.60;59.00;;;;;;5030820;28;20025;-77
2022/06/18 13:14:48;;;;;;;14.05;3.70;;;31.60;58.80;;;;;;5029644;28;20041;-76
2022/06/18 13:17:28;;;;;;;8.70;3.80;;;31.50;58.80;;;;;;5030359;28;20030;-77
2022/06/18 13:20:00;;;;;;;13.15;4.05;;;31.40;58.80;;;;;;5030652;28;20053;-77
2022/06/18 13:22:27;;;;;;;12.88;4.55;;;31.50;58.90;;;;;;5030371;28;20434;-76
2022/06/18 13:30:54;;;;;;;13.27;4.03;;;31.40;59.10;;;;;;5034429;28;20040;-76
2022/06/18 13:33:40;;;;;;;9.90;3.45;;;31.30;59.40;;;;;;5034375;28;20049;-77
2022/06/18 13:36:35;;;;;;;11.43;3.65;;;31.40;59.20;;;;;;5034587;28;20087;-77